createdAt,value
2022-12-05T00:01:25.731Z,4.60
2022-12-05T00:04:27.466Z,4.59
2022-12-05T00:07:29.101Z,4.72
2022-12-05T00:10:30.680Z,4.58
2022-12-05T00:13:32.259Z,4.63
2022-12-05T00:16:36.218Z,4.64
2022-12-05T00:19:38.993Z,4.70
2022-12-05T00:22:40.548Z,4.48
2022-12-05T00:25:43.994Z,4.57
2022-12-05T00:28:45.525Z,4.54
2022-12-05T00:31:47.368Z,4.53
2022-12-05T00:34:48.988Z,4.36
2022-12-05T00:37:50.618Z,4.54
2022-12-05T00:40:52.171Z,4.60
2022-12-05T00:43:54.949Z,4.46
2022-12-05T00:46:56.553Z,4.37
2022-12-05T00:49:58.319Z,4.37
2022-12-05T00:53:00.073Z,4.42
2022-12-05T00:56:04.212Z,4.38
2022-12-05T00:59:06.419Z,4.27
2022-12-05T01:02:07.983Z,4.18
2022-12-05T01:05:09.653Z,4.25
2022-12-05T01:08:11.321Z,4.28
2022-12-05T01:11:16.983Z,4.26
2022-12-05T01:14:20.620Z,4.28
2022-12-05T01:17:22.209Z,4.22
2022-12-05T01:20:23.752Z,4.25
2022-12-05T01:23:25.371Z,4.20
2022-12-05T01:26:26.924Z,4.36
2022-12-05T01:29:28.532Z,4.24
2022-12-05T01:32:30.078Z,4.31
2022-12-05T01:35:33.280Z,4.17
2022-12-05T01:38:34.823Z,4.14
2022-12-05T01:41:39.524Z,4.06
2022-12-05T01:44:43.742Z,4.19
2022-12-05T01:47:45.433Z,4.30
2022-12-05T01:50:48.703Z,4.31
2022-12-05T01:53:50.331Z,4.22
2022-12-05T01:57:05.518Z,4.22
2022-12-05T02:00:14.814Z,4.15
2022-12-05T02:03:19.608Z,4.04
2022-12-05T02:06:22.647Z,4.05
2022-12-05T02:09:24.307Z,3.96
2022-12-05T02:12:26.288Z,3.83
2022-12-05T02:15:44.026Z,3.83
2022-12-05T02:18:58.649Z,3.87
2022-12-05T02:22:37.385Z,3.69
2022-12-05T02:25:57.551Z,3.79
2022-12-05T02:29:29.492Z,3.64
2022-12-05T02:32:36.833Z,3.74
2022-12-05T02:36:35.519Z,3.47
2022-12-05T02:39:55.284Z,3.43
2022-12-05T02:43:05.724Z,3.39
2022-12-05T02:46:12.768Z,3.41
2022-12-05T02:49:20.945Z,3.46
2022-12-05T02:52:24.835Z,3.46
2022-12-05T02:55:30.840Z,3.34
2022-12-05T02:58:39.091Z,3.41
2022-12-05T03:01:44.981Z,3.44
2022-12-05T03:04:46.652Z,3.49
2022-12-05T03:07:51.978Z,3.52
2022-12-05T03:10:54.538Z,3.60
2022-12-05T03:14:01.234Z,3.60
2022-12-05T03:17:08.733Z,3.57
2022-12-05T03:20:15.666Z,3.64
2022-12-05T03:23:34.363Z,3.60
2022-12-05T03:27:03.545Z,3.67
2022-12-05T03:30:14.758Z,3.61
2022-12-05T03:33:23.971Z,3.63
2022-12-05T03:36:44.041Z,3.63
2022-12-05T03:39:52.690Z,3.72
2022-12-05T03:43:00.768Z,3.59
2022-12-05T03:46:05.283Z,3.67
2022-12-05T03:49:33.830Z,3.62
2022-12-05T03:53:17.606Z,3.67
2022-12-05T03:56:16.468Z,3.75
2022-12-05T03:59:39.679Z,3.82
2022-12-05T04:02:53.105Z,3.98
2022-12-05T04:05:57.737Z,3.83
2022-12-05T04:09:34.046Z,3.94
2022-12-05T04:12:37.116Z,3.97
2022-12-05T04:15:57.883Z,3.98
2022-12-05T04:19:08.013Z,4.03
2022-12-05T04:22:09.584Z,4.05
2022-12-05T04:25:33.216Z,4.05
2022-12-05T04:28:42.197Z,4.01
2022-12-05T04:31:50.157Z,3.93
2022-12-05T04:34:58.442Z,4.06
2022-12-05T04:38:25.539Z,4.05
2022-12-05T04:41:39.060Z,4.04
2022-12-05T04:44:51.059Z,3.98
2022-12-05T04:47:59.327Z,3.88
2022-12-05T04:51:03.323Z,3.76
2022-12-05T04:54:14.632Z,3.80
2022-12-05T04:57:36.641Z,3.69
2022-12-05T05:01:14.883Z,3.71
2022-12-05T05:04:26.049Z,3.77
2022-12-05T05:07:28.148Z,3.73
2022-12-05T05:10:39.281Z,3.71
2022-12-05T05:13:40.892Z,3.74
2022-12-05T05:16:42.985Z,3.83
2022-12-05T05:19:44.600Z,3.85
2022-12-05T05:22:49.068Z,3.70
2022-12-05T05:25:55.391Z,3.75
2022-12-05T05:28:58.192Z,3.63
2022-12-05T05:31:59.746Z,3.69
2022-12-05T05:35:01.300Z,3.66
2022-12-05T05:38:03.328Z,3.75
2022-12-05T05:41:05.628Z,3.77
2022-12-05T05:44:07.193Z,3.83
2022-12-05T05:47:08.797Z,3.69
2022-12-05T05:50:14.992Z,3.81
2022-12-05T05:53:19.552Z,3.84
2022-12-05T05:56:22.275Z,3.82
2022-12-05T05:59:24.031Z,3.80
2022-12-05T06:02:25.647Z,3.73
2022-12-05T06:05:27.273Z,3.74
2022-12-05T06:08:33.469Z,3.61
2022-12-05T06:11:35.024Z,3.63
2022-12-05T06:14:36.615Z,3.66
2022-12-05T06:17:38.316Z,3.70
2022-12-05T06:20:39.890Z,3.55
2022-12-05T06:23:41.840Z,3.63
2022-12-05T06:26:43.685Z,3.68
2022-12-05T06:29:45.324Z,3.79
2022-12-05T06:32:46.947Z,3.66
2022-12-05T06:35:48.648Z,3.79
2022-12-05T06:38:50.398Z,3.80
2022-12-05T06:41:52.802Z,3.79
2022-12-05T06:44:54.381Z,3.77
2022-12-05T06:47:55.925Z,3.88
2022-12-05T06:50:57.518Z,3.96
2022-12-05T06:53:59.107Z,3.86
2022-12-05T06:57:00.700Z,3.91
2022-12-05T07:00:21.526Z,3.93
2022-12-05T07:03:23.103Z,3.97
2022-12-05T07:06:25.010Z,3.91
2022-12-05T07:09:45.498Z,4.04
2022-12-05T07:12:47.167Z,4.13
2022-12-05T07:15:49.425Z,4.20
2022-12-05T07:18:51.295Z,4.25
2022-12-05T07:21:52.871Z,4.34
2022-12-05T07:24:54.461Z,4.44
2022-12-05T07:27:56.072Z,4.45
2022-12-05T07:31:05.749Z,4.45
2022-12-05T07:34:07.363Z,4.49
2022-12-05T07:37:08.944Z,4.46
2022-12-05T07:40:11.272Z,4.58
2022-12-05T07:43:12.902Z,4.68
2022-12-05T07:46:14.757Z,4.80
2022-12-05T07:49:16.412Z,4.93
2022-12-05T07:52:17.979Z,5.01
2022-12-05T07:55:19.523Z,5.01
2022-12-05T07:58:21.105Z,5.16
2022-12-05T08:01:27.750Z,4.99
2022-12-05T08:04:29.600Z,5.04
2022-12-05T08:07:31.249Z,5.12
2022-12-05T08:10:34.389Z,5.02
2022-12-05T08:13:36.383Z,5.15
2022-12-05T08:16:38.078Z,5.09
2022-12-05T08:19:39.688Z,5.06
2022-12-05T08:22:41.290Z,5.07
2022-12-05T08:25:43.493Z,5.17
2022-12-05T08:28:45.128Z,5.19
2022-12-05T08:31:49.631Z,5.21
2022-12-05T08:34:51.270Z,5.31
2022-12-05T08:37:53.155Z,5.06
2022-12-05T08:40:54.889Z,5.32
2022-12-05T08:44:05.690Z,5.42
2022-12-05T08:47:07.283Z,5.40
2022-12-05T08:50:09.171Z,5.47
2022-12-05T08:53:10.739Z,5.66
2022-12-05T08:56:13.183Z,5.57
2022-12-05T08:59:14.782Z,5.45
2022-12-05T09:02:16.656Z,5.81
2022-12-05T09:05:27.859Z,5.88
2022-12-05T09:08:30.109Z,5.98
2022-12-05T09:11:34.825Z,5.95
2022-12-05T09:14:36.405Z,6.07
2022-12-05T09:17:39.733Z,5.85
2022-12-05T09:20:41.600Z,5.86
2022-12-05T09:23:43.663Z,6.04
2022-12-05T09:26:45.854Z,6.09
2022-12-05T09:29:47.771Z,6.32
2022-12-05T09:32:49.375Z,6.15
2022-12-05T09:35:50.932Z,6.15
2022-12-05T09:38:53.373Z,6.28
2022-12-05T09:42:10.211Z,6.50
2022-12-05T09:45:22.753Z,6.61
2022-12-05T09:48:24.588Z,6.80
2022-12-05T09:51:26.851Z,6.69
2022-12-05T09:54:28.678Z,6.96
2022-12-05T09:57:40.576Z,7.06
2022-12-05T10:00:42.725Z,6.73
2022-12-05T10:04:00.879Z,6.84
2022-12-05T10:07:11.381Z,6.99
2022-12-05T10:10:20.377Z,6.96
2022-12-05T10:14:24.037Z,6.77
2022-12-05T10:17:32.730Z,7.03
2022-12-05T10:20:43.358Z,7.12
2022-12-05T10:23:59.230Z,7.02
2022-12-05T10:27:18.137Z,7.25
2022-12-05T10:30:22.769Z,7.27
2022-12-05T10:33:31.002Z,7.43
2022-12-05T10:36:32.732Z,7.39
2022-12-05T10:39:34.316Z,7.22
2022-12-05T10:42:36.275Z,7.48
2022-12-05T10:45:44.904Z,7.60
2022-12-05T10:48:46.541Z,7.51
2022-12-05T10:51:49.056Z,7.28
2022-12-05T10:55:02.602Z,7.33
2022-12-05T10:58:23.908Z,7.31
2022-12-05T11:01:26.262Z,7.26
2022-12-05T11:04:43.476Z,7.28
2022-12-05T11:07:49.479Z,7.23
2022-12-05T11:11:03.687Z,7.38
2022-12-05T11:14:18.501Z,7.35
2022-12-05T11:17:46.625Z,7.42
2022-12-05T11:20:48.212Z,7.67
2022-12-05T11:23:49.844Z,7.92
2022-12-05T11:26:51.776Z,7.94
2022-12-05T11:30:15.096Z,7.92
2022-12-05T11:33:22.973Z,7.95
2022-12-05T11:36:40.139Z,7.85
2022-12-05T11:39:41.902Z,8.08
2022-12-05T11:43:16.159Z,8.11
2022-12-05T11:46:26.275Z,7.96
2022-12-05T11:49:47.177Z,8.29
2022-12-05T11:53:13.480Z,8.27
2022-12-05T11:56:35.155Z,8.10
2022-12-05T12:00:02.668Z,8.48
2022-12-05T12:03:33.588Z,8.48
2022-12-05T12:06:47.935Z,8.39
2022-12-05T12:10:09.989Z,8.23
2022-12-05T12:13:24.163Z,8.05
2022-12-05T12:16:52.661Z,7.97
2022-12-05T12:20:04.073Z,7.78
2022-12-05T12:23:21.207Z,7.60
2022-12-05T12:26:41.604Z,7.62
2022-12-05T12:29:53.971Z,7.66
2022-12-05T12:32:55.471Z,7.76
2022-12-05T12:36:09.304Z,7.69
2022-12-05T12:39:19.846Z,7.48
2022-12-05T12:42:35.238Z,7.40
2022-12-05T12:45:47.823Z,7.48
2022-12-05T12:49:13.829Z,7.58
2022-12-05T12:52:21.895Z,7.45
2022-12-05T12:55:43.728Z,7.41
2022-12-05T12:59:14.754Z,7.48
2022-12-05T13:02:29.376Z,7.23
2022-12-05T13:05:42.820Z,7.35
2022-12-05T13:08:50.841Z,7.33
2022-12-05T13:11:55.836Z,7.28
2022-12-05T13:15:19.965Z,7.35
2022-12-05T13:18:24.820Z,7.28
2022-12-05T13:21:28.055Z,7.30
2022-12-05T13:24:29.815Z,7.25
2022-12-05T13:27:31.418Z,7.45
2022-12-05T13:30:33.592Z,7.37
2022-12-05T13:33:47.073Z,7.33
2022-12-05T13:37:07.717Z,7.28
2022-12-05T13:41:00.057Z,7.25
2022-12-05T13:44:11.984Z,7.36
2022-12-05T13:47:38.929Z,7.14
2022-12-05T13:51:03.728Z,7.24
2022-12-05T13:54:17.131Z,7.22
2022-12-05T13:57:37.532Z,7.13
2022-12-05T14:00:39.316Z,7.06
2022-12-05T14:04:00.799Z,7.20
2022-12-05T14:07:02.353Z,7.20
2022-12-05T14:10:04.663Z,7.27
2022-12-05T14:13:33.703Z,7.23
2022-12-05T14:16:35.393Z,7.04
2022-12-05T14:19:57.624Z,6.83
2022-12-05T14:23:16.399Z,6.99
2022-12-05T14:26:34.970Z,6.83
2022-12-05T14:29:45.759Z,6.67
2022-12-05T14:32:48.494Z,6.69
2022-12-05T14:35:53.331Z,6.80
2022-12-05T14:38:54.914Z,6.58
2022-12-05T14:42:01.945Z,6.87
2022-12-05T14:45:22.559Z,6.81
2022-12-05T14:48:36.767Z,6.64
2022-12-05T14:51:38.240Z,6.87
2022-12-05T14:54:40.597Z,6.80
2022-12-05T14:57:49.138Z,6.74
2022-12-05T15:01:03.541Z,6.68
2022-12-05T15:04:15.601Z,6.72
2022-12-05T15:07:35.081Z,6.53
2022-12-05T15:10:38.791Z,6.55
2022-12-05T15:13:40.504Z,6.48
2022-12-05T15:16:44.849Z,6.33
2022-12-05T15:19:55.247Z,6.42
2022-12-05T15:22:56.872Z,6.51
2022-12-05T15:26:12.188Z,6.53
2022-12-05T15:29:20.567Z,6.59
2022-12-05T15:32:27.147Z,6.62
2022-12-05T15:35:32.892Z,6.51
2022-12-05T15:38:35.390Z,6.55
2022-12-05T15:41:37.899Z,6.47
2022-12-05T15:44:39.738Z,6.47
2022-12-05T15:47:42.819Z,6.35
2022-12-05T15:50:49.062Z,6.43
2022-12-05T15:53:58.638Z,6.38
2022-12-05T15:57:00.343Z,6.21
2022-12-05T16:00:07.611Z,6.39
2022-12-05T16:03:29.803Z,6.18
2022-12-05T16:06:42.620Z,6.09
2022-12-05T16:09:46.058Z,6.14
2022-12-05T16:12:50.945Z,6.07
2022-12-05T16:15:54.405Z,6.05
2022-12-05T16:18:58.552Z,6.08
2022-12-05T16:22:17.800Z,6.11
2022-12-05T16:25:27.517Z,6.09
2022-12-05T16:28:33.571Z,6.00
2022-12-05T16:31:36.300Z,6.02
2022-12-05T16:34:38.001Z,5.92
2022-12-05T16:37:39.577Z,5.96
2022-12-05T16:41:02.859Z,5.89
2022-12-05T16:44:13.916Z,6.08
2022-12-05T16:47:26.780Z,5.89
2022-12-05T16:50:34.962Z,5.91
2022-12-05T16:53:37.753Z,5.95
2022-12-05T16:56:39.731Z,5.94
2022-12-05T16:59:43.380Z,5.90
2022-12-05T17:02:46.894Z,5.89
2022-12-05T17:05:48.520Z,5.80
2022-12-05T17:08:51.872Z,5.81
2022-12-05T17:12:02.222Z,5.81
2022-12-05T17:15:04.300Z,5.81
2022-12-05T17:18:24.186Z,5.83
2022-12-05T17:21:32.306Z,5.74
2022-12-05T17:24:33.999Z,5.72
2022-12-05T17:27:35.574Z,5.78
2022-12-05T17:30:38.317Z,5.77
2022-12-05T17:33:39.887Z,5.73
2022-12-05T17:36:43.772Z,5.83
2022-12-05T17:39:45.373Z,5.70
2022-12-05T17:42:47.534Z,5.82
2022-12-05T17:45:49.321Z,5.68
2022-12-05T17:48:51.816Z,5.69
2022-12-05T17:55:21.475Z,5.68
2022-12-05T17:58:23.437Z,5.62
2022-12-05T18:01:31.889Z,5.56
2022-12-05T18:04:33.552Z,5.65
2022-12-05T18:07:35.734Z,5.66
2022-12-05T18:10:40.506Z,5.72
2022-12-05T18:13:42.236Z,5.83
2022-12-05T18:16:44.123Z,5.93
2022-12-05T18:19:45.714Z,5.86
2022-12-05T18:22:48.735Z,5.75
2022-12-05T18:26:00.719Z,5.77
2022-12-05T18:29:02.749Z,5.77
2022-12-05T18:32:04.574Z,5.87
2022-12-05T18:35:12.714Z,5.72
2022-12-05T18:38:14.726Z,5.69
2022-12-05T18:41:17.204Z,5.77
2022-12-05T18:44:20.349Z,5.71
2022-12-05T18:47:22.529Z,5.73
2022-12-05T18:50:24.744Z,5.74
2022-12-05T18:53:26.649Z,5.72
2022-12-05T18:56:31.701Z,5.77
2022-12-05T18:59:33.949Z,5.72
2022-12-05T19:02:35.994Z,5.66
2022-12-05T19:05:38.269Z,5.77
2022-12-05T19:08:40.510Z,5.72
2022-12-05T19:11:47.609Z,5.61
2022-12-05T19:14:49.539Z,5.44
2022-12-05T19:17:51.541Z,5.53
2022-12-05T19:20:53.155Z,5.51
2022-12-05T19:23:56.503Z,5.49
2022-12-05T19:26:58.542Z,5.44
2022-12-05T19:30:05.067Z,5.43
2022-12-05T19:33:10.088Z,5.41
2022-12-05T19:36:14.847Z,5.44
2022-12-05T19:39:20.205Z,5.43
2022-12-05T19:42:22.214Z,5.42
2022-12-05T19:45:24.262Z,5.45
2022-12-05T19:48:26.403Z,5.47
2022-12-05T19:51:29.677Z,5.48
2022-12-05T19:54:32.572Z,5.54
2022-12-05T19:57:36.185Z,5.59
2022-12-05T20:00:38.706Z,5.46
2022-12-05T20:03:41.579Z,5.36
2022-12-05T20:06:48.935Z,5.45
2022-12-05T20:09:50.993Z,5.49
2022-12-05T20:12:53.078Z,5.55
2022-12-05T20:15:55.147Z,5.59
2022-12-05T20:18:59.484Z,5.68
2022-12-05T20:22:01.459Z,5.56
2022-12-05T20:25:04.329Z,5.55
2022-12-05T20:28:05.962Z,5.61
2022-12-05T20:31:10.937Z,5.67
2022-12-05T20:34:15.586Z,5.55
2022-12-05T20:37:17.924Z,5.57
2022-12-05T20:40:19.990Z,5.55
2022-12-05T20:43:22.208Z,5.40
2022-12-05T20:46:24.863Z,5.34
2022-12-05T20:49:27.183Z,5.35
2022-12-05T20:52:29.328Z,5.28
2022-12-05T20:55:31.540Z,5.29
2022-12-05T20:58:33.768Z,5.32
2022-12-05T21:01:37.254Z,5.38
2022-12-05T21:04:41.043Z,5.37
2022-12-05T21:07:42.631Z,5.35
2022-12-05T21:10:45.620Z,5.39
2022-12-05T21:13:47.569Z,5.42
2022-12-05T21:16:49.144Z,5.45
2022-12-05T21:19:50.709Z,5.46
2022-12-05T21:22:52.325Z,5.45
2022-12-05T21:25:54.390Z,5.52
2022-12-05T21:28:56.732Z,5.71
2022-12-05T21:31:59.577Z,5.55
2022-12-05T21:35:01.293Z,5.49
2022-12-05T21:38:03.429Z,5.68
2022-12-05T21:41:05.718Z,5.57
2022-12-05T21:44:07.443Z,5.73
2022-12-05T21:47:09.132Z,5.59
2022-12-05T21:50:11.406Z,5.64
2022-12-05T21:53:13.239Z,5.55
2022-12-05T21:56:17.912Z,5.47
2022-12-05T21:59:19.459Z,5.62
2022-12-05T22:02:21.081Z,5.41
2022-12-05T22:05:22.658Z,5.50
2022-12-05T22:08:24.218Z,5.38
2022-12-05T22:11:26.313Z,5.35
2022-12-05T22:14:27.863Z,5.29
2022-12-05T22:17:29.424Z,5.30
2022-12-05T22:20:30.982Z,5.24
2022-12-05T22:23:34.024Z,5.24
2022-12-05T22:26:35.656Z,5.14
2022-12-05T22:29:37.272Z,5.01
2022-12-05T22:32:38.875Z,5.20
2022-12-05T22:35:40.611Z,5.10
2022-12-05T22:38:44.610Z,5.09
2022-12-05T22:41:46.162Z,4.93
2022-12-05T22:44:47.701Z,4.96
2022-12-05T22:47:49.272Z,4.97
2022-12-05T22:50:53.482Z,4.89
2022-12-05T22:53:55.793Z,4.91
2022-12-05T22:56:57.323Z,4.90
2022-12-05T22:59:59.272Z,5.00
2022-12-05T23:03:01.009Z,5.00
2022-12-05T23:06:08.284Z,5.06
2022-12-05T23:09:26.251Z,5.02
2022-12-05T23:12:27.929Z,4.95
2022-12-05T23:15:29.630Z,4.97
2022-12-05T23:18:31.212Z,4.86
2022-12-05T23:21:35.982Z,4.98
2022-12-05T23:24:37.558Z,5.09
2022-12-05T23:27:39.122Z,5.11
2022-12-05T23:30:40.678Z,5.05
2022-12-05T23:33:42.637Z,4.95
2022-12-05T23:36:44.208Z,4.91
2022-12-05T23:39:45.772Z,4.87
2022-12-05T23:42:47.365Z,4.85
2022-12-05T23:45:48.908Z,4.92
2022-12-05T23:48:50.805Z,4.97
2022-12-05T23:51:52.412Z,4.71
2022-12-05T23:54:53.960Z,4.76
2022-12-05T23:57:55.482Z,4.85
